Weather observations for the past three days for
La Grande/Union County Airport
Metric (Imperial)
Date Time (pdt) Wind (kph) Vis. (km) Weather Sky Cond. Temperature (ºC) Relative Humidity Wind Chill (°C) Heat Index (°C) Pressure Precipitation (cm)
Air Dwpt 6 hour altimeter (cm) sea level (mb) 1 hr 3 hr 6 hr
Max. Min.
02 22:56 Calm 16.09 Fair CLR 13.9 3.9 26.7 12.2 51% 76.15 1014.5
02 21:56 S 11 16.09 Fair CLR 12.2 4.4 59% 76.12 1014.5
02 20:56 SW 7 16.09 Fair CLR 15 4.4 49% 76.07 1013.9
02 19:56 W 6 16.09 Fair CLR 18.9 5 40% 76.02 1013.0
02 18:56 NE 15 16.09 Fair CLR 22.8 5.6 33% 76 1012.5
02 17:56 E 7 16.09 Fair CLR 25.6 -1.1 17% 25 76 1012.4
02 16:56 E 6 16.09 Fair CLR 26.1 -2.2 26.7 18.3 15% 25 76 1012.4
02 15:56 SE 9 16.09 Fair CLR 26.7 1.7 20% 26 76.02 1012.8
02 14:56 SE 11 16.09 Fair CLR 25.6 2.2 22% 25 76.07 1013.5
02 13:56 Vrbl 11 16.09 Fair CLR 24.4 4.4 27% 25 76.12 1014.1
02 12:56 Vrbl 6 16.09 Fair CLR 23.3 4.4 29% 76.17 1014.8
02 11:56 E 6 16.09 Fair CLR 20 5 38% 76.25 1015.5
02 10:56 Vrbl 6 16.09 Fair CLR 18.3 6.1 18.3 5 45% 76.28 1016.3
02 09:56 Vrbl 9 16.09 Fair CLR 16.1 5 48% 76.3 1016.4
02 08:56 N 6 16.09 Fair CLR 12.8 5 59% 76.33 1017.2
02 07:56 NW 6 16.09 Fair CLR 9.4 5 74% 76.33 1017.4
02 06:56 NW 6 16.09 Fair CLR 8.3 3.9 74% 76.33 1017.1
02 05:56 NW 7 16.09 Fair CLR 6.7 2.2 73% 6 76.3 1016.8
02 04:56 Calm 16.09 Fair CLR 6.7 2.2 16.7 5.6 73% 76.3 1016.6
02 03:56 NW 7 16.09 Fair CLR 6.7 2.8 76% 6 76.28 1016.4
02 02:56 N 7 16.09 Fair CLR 7.2 3.3 77% 6 76.28 1016.3
02 01:56 NW 7 16.09 Fair CLR 8.9 2.8 66% 8 76.28 1016.1
02 00:56 NW 15 16.09 Fair CLR 10 2.8 61% 8 76.28 1016.2
01 23:56 SE 15 16.09 Fair CLR 15.6 1.7 39% 76.25 1015.6
01 22:56 E 6 16.09 Fair CLR 13.9 2.2 23.3 13.9 45% 76.25 1016.0
01 21:56 S 20 G 31 16.09 Fair CLR 18.3 1.7 33% 76.25 1015.9
01 20:56 S 22 16.09 Fair CLR 17.2 2.2 37% 76.23 1015.9
01 19:56 S 22 16.09 Fair CLR 19.4 0.6 29% 76.17 1015.3
01 18:56 S 22 16.09 Fair CLR 20.6 1.1 27% 76.17 1015.2
01 17:56 SE 24 G 35 16.09 Fair CLR 22.8 1.7 25% 76.17 1015.5
01 16:56 SE 26 16.09 Fair CLR 23.3 2.2 24.4 17.2 25% 76.2 1015.9
01 15:56 SE 28 G 35 16.09 Fair CLR 23.9 1.7 23% 25 76.25 1016.2
01 13:56 SE 33 G 41 16.09 Fair and Breezy CLR 23.9 3.9 27% 25 76.35 1017.4
01 12:56 S 20 G 33 16.09 Fair CLR 23.3 3.3 27% 76.38 1017.9
01 11:56 Vrbl 11 16.09 Fair CLR 20.6 5.6 38% 76.43 1018.6
01 10:56 Vrbl 6 16.09 Fair CLR 17.2 5.6 17.2 1.7 47% 76.48 1019.7
01 09:56 Vrbl 6 16.09 Fair CLR 13.3 4.4 55% 76.53 1020.5
01 08:56 N 6 16.09 Fair CLR 11.1 3.9 61% 76.56 1021.0
01 07:56 Calm 16.09 Fair CLR 8.3 3.3 71% 76.58 1020.8
01 06:56 Calm 16.09 Fair CLR 5.6 3.3 85% 76.56 1020.5
01 05:56 Calm 16.09 Fair CLR 2.2 1.7 97% 76.53 1020.4
01 04:56 Calm 16.09 Fair CLR 2.2 1.1 10.6 2.2 93% 76.5 1020.2
01 03:56 Calm 16.09 Fair CLR 4.4 2.8 89% 76.5 1020.0
01 02:56 Calm 16.09 Fair CLR 5 3.3 89% 76.48 1019.5
01 01:56 Calm 16.09 Fair CLR 5 2.2 82% 76.48 1019.7
01 00:56 N 7 16.09 Fair CLR 6.7 2.8 76% 6 76.5 1019.9
30 23:56 Calm 16.09 Fair CLR 9.4 2.8 64% 76.48 1019.5
30 22:56 S 11 16.09 Fair CLR 8.3 2.8 21.7 8.3 69% 7 76.45 1019.7
30 21:56 W 9 16.09 Fair CLR 10.6 2.2 56% 76.43 1019.3
30 20:56 S 9 16.09 Fair CLR 12.2 2.2 51% 76.4 1018.8
30 19:56 W 6 16.09 Fair CLR 16.7 2.8 40% 76.35 1017.9
30 18:56 NE 7 16.09 Fair CLR 20.6 0 25% 76.33 1017.5
30 17:56 NE 7 16.09 Fair CLR 21.1 0 25% 76.33 1018.0
30 16:56 N 11 16.09 Fair CLR 21.1 0 21.7 13.9 25% 76.35 1018.0
30 15:56 Calm 16.09 Fair CLR 20.6 0 25% 76.4 1018.8
30 14:56 Calm 16.09 Fair CLR 21.1 1.7 28% 76.48 1019.4
30 13:56 E 13 16.09 Fair CLR 20.6 2.2 30% 76.5 1019.9
30 12:56 N 7 16.09 Fair CLR 18.3 2.8 36% 76.56 1020.5
30 11:56 Vrbl 6 14.48 Fair CLR 17.2 2.8 38% 76.63 1021.3
30 10:56 Vrbl 6 16.09 Fair CLR 13.9 3.3 14.4 1.1 49% 76.68 1022.4
30 09:56 NW 7 16.09 Fair CLR 12.2 2.8 53% 76.71 1023.1
30 08:56 N 7 16.09 Fair CLR 10 3.9 66% 9 76.73 1023.5
30 07:56 NW 6 16.09 Fair CLR 7.2 2.8 74% 76.76 1023.9
30 06:56 Calm 16.09 Fair CLR 5 2.8 86% 76.73 1023.6
30 05:56 S 6 16.09 Fair CLR 1.1 -0.6 89% 76.71 1023.3
30 04:56 Calm 16.09 Fair CLR 3.9 1.7 11.1 3.3 86% 76.68 1022.6
30 03:56 W 9 16.09 Fair CLR 3.9 1.7 86% 2 76.68 1022.6
30 02:56 SW 9 16.09 Fair CLR 4.4 1.7 83% 2 76.66 1022.4
30 01:56 NW 9 16.09 Fair CLR 7.2 2.2 71% 6 76.68 1022.2
30 00:56 NW 9 16.09 Fair CLR 8.3 1.7 63% 7 76.68 1022.3
29 23:56 NW 17 16.09 Fair CLR 10.6 1.7 54% 76.66 1021.8
Date Time (pdt) Wind (kph) Vis. (km) Weather Sky Cond. Air Dwpt Max. Min. Relative Humidity Wind Chill (°C) Heat Index (°C) altimeter (cm) sea level (mb) 1 hr 3 hr 6 hr
6 hour
Temperature (ºC) Pressure Precipitation (cm)